Time;durP1;ratioP1;P1;durP2;ratioP2;P2;SDS_P1;SDS_P2;PMS_P1;PMS_P2;Temp;Humidity;BMP_temperature;BMP_pressure;BME280_temperature;BME280_humidity;BME280_pressure;Samples;Min_cycle;Max_cycle;Signal;HPM_P1;HPM_P2
2021/11/03 00:01:02;;;;;;;5.10;2.83;;;;;;;;;;5069703;28;20036;-62
2021/11/03 00:03:29;;;;;;;7.03;2.73;;;;;;;;;;5071022;28;20063;-61
2021/11/03 00:05:58;;;;;;;5.27;2.87;;;;;;;;;;5075428;28;20081;-62
2021/11/03 00:08:27;;;;;;;6.90;3.00;;;;;;;;;;5075571;28;20033;-61
2021/11/03 00:10:54;;;;;;;8.87;4.30;;;;;;;;;;5057304;28;20028;-61
2021/11/03 00:13:22;;;;;;;5.00;3.07;;;;;;;;;;5075108;28;20039;-61
2021/11/03 00:15:50;;;;;;;9.87;4.03;;;;;;;;;;5073448;28;20029;-61
2021/11/03 00:18:17;;;;;;;5.73;3.13;;;;;;;;;;5069363;28;20063;-61
2021/11/03 00:20:44;;;;;;;7.30;4.30;;;;;;;;;;5069619;28;20185;-63
2021/11/03 00:23:14;;;;;;;4.23;2.80;;;;;;;;;;5069778;28;20068;-61
2021/11/03 00:25:45;;;;;;;7.13;2.83;;;;;;;;;;5070337;28;20379;-61
2021/11/03 00:28:12;;;;;;;7.37;3.00;;;;;;;;;;5057106;28;20028;-61
2021/11/03 00:30:41;;;;;;;6.67;3.23;;;;;;;;;;5074702;28;20130;-61
2021/11/03 00:33:08;;;;;;;5.53;3.13;;;;;;;;;;5056806;28;20475;-62
2021/11/03 00:35:36;;;;;;;6.07;3.13;;;;;;;;;;5074873;28;20488;-61
2021/11/03 00:38:05;;;;;;;9.33;3.27;;;;;;;;;;5073319;28;20056;-61
2021/11/03 00:40:33;;;;;;;7.73;3.50;;;;;;;;;;5068064;28;20040;-62
2021/11/03 00:43:00;;;;;;;8.63;3.50;;;;;;;;;;5069512;28;20035;-61
2021/11/03 00:45:27;;;;;;;7.23;3.43;;;;;;;;;;5069281;28;20364;-61
2021/11/03 00:47:54;;;;;;;4.90;2.90;;;;;;;;;;5069618;28;20096;-61
2021/11/03 00:50:23;;;;;;;6.07;3.60;;;;;;;;;;5074179;28;20052;-61
2021/11/03 00:52:50;;;;;;;8.10;2.97;;;;;;;;;;5056882;28;20090;-61
2021/11/03 00:55:17;;;;;;;9.27;4.07;;;;;;;;;;5074652;28;20495;-61
2021/11/03 00:57:46;;;;;;;8.00;3.60;;;;;;;;;;5074321;28;20044;-61
2021/11/03 01:00:16;;;;;;;12.90;3.70;;;;;;;;;;5073405;28;20020;-61
2021/11/03 01:02:43;;;;;;;26.47;4.80;;;;;;;;;;5068845;28;20062;-61
2021/11/03 01:05:11;;;;;;;8.57;3.97;;;;;;;;;;5050925;28;20032;-61
2021/11/03 01:07:38;;;;;;;9.43;3.40;;;;;;;;;;5068768;28;20078;-60
2021/11/03 01:10:05;;;;;;;5.27;3.53;;;;;;;;;;5051107;28;20032;-61
2021/11/03 01:12:36;;;;;;;5.23;3.70;;;;;;;;;;5073918;28;20040;-60
2021/11/03 01:15:04;;;;;;;10.47;4.10;;;;;;;;;;5056267;28;20028;-60
2021/11/03 01:17:30;;;;;;;8.47;4.40;;;;;;;;;;5073529;28;20502;-61
2021/11/03 01:19:57;;;;;;;7.63;3.90;;;;;;;;;;5074094;28;20375;-61
2021/11/03 01:22:24;;;;;;;10.93;4.90;;;;;;;;;;5073165;28;20028;-60
2021/11/03 01:24:52;;;;;;;8.33;3.53;;;;;;;;;;5068179;28;20369;-61
2021/11/03 01:27:19;;;;;;;6.93;3.53;;;;;;;;;;5068601;28;20021;-61
2021/11/03 01:29:46;;;;;;;12.73;4.77;;;;;;;;;;5068423;28;20401;-60
2021/11/03 01:32:13;;;;;;;9.97;4.57;;;;;;;;;;5068629;28;20052;-61
2021/11/03 01:34:39;;;;;;;8.77;4.10;;;;;;;;;;5073544;28;20017;-60
2021/11/03 01:37:06;;;;;;;7.53;4.40;;;;;;;;;;5073718;28;20039;-63
2021/11/03 01:39:33;;;;;;;10.83;4.30;;;;;;;;;;5073638;28;20025;-61
2021/11/03 01:42:00;;;;;;;8.47;5.73;;;;;;;;;;5073228;28;20032;-61
2021/11/03 01:44:27;;;;;;;10.60;5.00;;;;;;;;;;5073353;28;20103;-60
2021/11/03 01:46:58;;;;;;;12.17;5.20;;;;;;;;;;5050006;28;20021;-61
2021/11/03 01:49:26;;;;;;;7.07;4.47;;;;;;;;;;5067526;28;20032;-61
2021/11/03 01:51:57;;;;;;;11.53;3.77;;;;;;;;;;5068040;28;20031;-61
2021/11/03 01:54:27;;;;;;;8.30;4.30;;;;;;;;;;5067845;28;20013;-62
2021/11/03 01:56:54;;;;;;;8.00;4.20;;;;;;;;;;5073078;28;20482;-62
2021/11/03 01:59:30;;;;;;;5.47;3.17;;;;;;;;;;5073274;28;20023;-61
2021/11/03 02:01:57;;;;;;;9.40;4.13;;;;;;;;;;5072837;28;20026;-61
2021/11/03 02:04:25;;;;;;;6.37;3.97;;;;;;;;;;5054864;28;20043;-61
2021/11/03 02:06:53;;;;;;;5.93;3.47;;;;;;;;;;5072549;28;20020;-61
2021/11/03 02:09:20;;;;;;;11.50;3.87;;;;;;;;;;5067596;28;20064;-62
2021/11/03 02:11:46;;;;;;;10.50;4.47;;;;;;;;;;5067662;28;20027;-62
2021/11/03 02:14:13;;;;;;;9.27;4.87;;;;;;;;;;5049569;28;20399;-61
2021/11/03 02:16:42;;;;;;;7.73;4.10;;;;;;;;;;5066989;28;20032;-61
2021/11/03 02:19:11;;;;;;;9.33;4.23;;;;;;;;;;5072831;28;20024;-63
2021/11/03 02:21:40;;;;;;;6.40;4.53;;;;;;;;;;5072736;28;20434;-61
2021/11/03 02:24:07;;;;;;;6.67;4.00;;;;;;;;;;5072798;28;20024;-60
2021/11/03 02:26:36;;;;;;;5.47;3.70;;;;;;;;;;5072864;28;20056;-62
2021/11/03 02:29:05;;;;;;;6.40;3.83;;;;;;;;;;5072518;28;20066;-60
2021/11/03 02:31:43;;;;;;;5.53;3.50;;;;;;;;;;5066761;28;20095;-61
2021/11/03 02:34:19;;;;;;;7.97;4.70;;;;;;;;;;5067308;28;20020;-61
2021/11/03 02:36:52;;;;;;;7.00;4.97;;;;;;;;;;5049513;28;20390;-62
2021/11/03 02:39:20;;;;;;;9.80;4.93;;;;;;;;;;5067137;28;20541;-62
2021/11/03 02:41:46;;;;;;;13.00;5.57;;;;;;;;;;5072088;28;20066;-62
2021/11/03 02:44:15;;;;;;;12.10;4.60;;;;;;;;;;5072368;28;20062;-62
2021/11/03 02:46:45;;;;;;;7.63;4.10;;;;;;;;;;5072515;28;20028;-62
2021/11/03 02:49:12;;;;;;;12.27;4.87;;;;;;;;;;5072044;28;20051;-62
2021/11/03 02:51:42;;;;;;;10.10;4.43;;;;;;;;;;5071155;28;20052;-62
2021/11/03 02:54:12;;;;;;;7.80;3.77;;;;;;;;;;5066961;28;20028;-63
2021/11/03 02:56:46;;;;;;;9.20;5.20;;;;;;;;;;5048920;28;20036;-63
2021/11/03 02:59:14;;;;;;;8.73;5.18;;;;;;;;;;5067058;28;20425;-62
2021/11/03 03:01:46;;;;;;;12.17;4.33;;;;;;;;;;5067227;28;20475;-62
2021/11/03 03:04:28;;;;;;;8.73;3.97;;;;;;;;;;5071366;28;20059;-62
2021/11/03 03:06:55;;;;;;;12.57;6.37;;;;;;;;;;5072134;28;20017;-60
2021/11/03 03:09:22;;;;;;;6.53;4.13;;;;;;;;;;5072250;28;20024;-62
2021/11/03 03:11:51;;;;;;;6.17;3.83;;;;;;;;;;5071540;28;20112;-63
2021/11/03 03:14:19;;;;;;;6.50;4.03;;;;;;;;;;5051941;28;20032;-62
2021/11/03 03:16:46;;;;;;;11.03;3.87;;;;;;;;;;5066728;28;20112;-63
2021/11/03 03:19:17;;;;;;;9.97;4.20;;;;;;;;;;5066696;28;20085;-62
2021/11/03 03:21:44;;;;;;;9.50;4.97;;;;;;;;;;5066775;28;20028;-63
2021/11/03 03:24:13;;;;;;;7.57;4.40;;;;;;;;;;5063503;28;20111;-62
2021/11/03 03:26:41;;;;;;;7.37;4.80;;;;;;;;;;5071627;28;20039;-63
2021/11/03 03:29:08;;;;;;;7.53;4.80;;;;;;;;;;5054501;28;20040;-61
2021/11/03 03:31:36;;;;;;;6.70;4.37;;;;;;;;;;5054293;28;20360;-62
2021/11/03 03:34:05;;;;;;;8.07;4.43;;;;;;;;;;5053675;28;20485;-62
2021/11/03 03:36:32;;;;;;;10.77;4.50;;;;;;;;;;5052393;28;20025;-62
2021/11/03 03:38:59;;;;;;;13.87;5.07;;;;;;;;;;5066348;28;20048;-62
2021/11/03 03:41:27;;;;;;;7.50;4.37;;;;;;;;;;5066769;28;20503;-62
2021/11/03 03:43:54;;;;;;;6.77;4.47;;;;;;;;;;5066530;28;20039;-62
2021/11/03 03:46:22;;;;;;;5.73;3.33;;;;;;;;;;5048139;28;20035;-62
2021/11/03 03:48:49;;;;;;;8.83;3.50;;;;;;;;;;5071557;28;20033;-62
2021/11/03 03:51:16;;;;;;;7.03;3.77;;;;;;;;;;5070935;28;20396;-62
2021/11/03 03:53:43;;;;;;;9.83;5.40;;;;;;;;;;5071616;28;20597;-63
2021/11/03 03:56:13;;;;;;;8.57;5.00;;;;;;;;;;5071486;28;20098;-62
2021/11/03 03:58:40;;;;;;;7.43;4.63;;;;;;;;;;5069689;28;20051;-62
2021/11/03 04:01:07;;;;;;;9.70;6.13;;;;;;;;;;5066669;28;20526;-62
2021/11/03 04:03:34;;;;;;;18.13;7.40;;;;;;;;;;5066050;28;20403;-62
2021/11/03 04:06:03;;;;;;;11.47;7.67;;;;;;;;;;5066313;28;20768;-62
2021/11/03 04:08:30;;;;;;;12.07;6.63;;;;;;;;;;5050054;28;20547;-62
2021/11/03 04:10:57;;;;;;;11.20;5.70;;;;;;;;;;5053905;28;20040;-62
2021/11/03 04:13:24;;;;;;;9.50;6.50;;;;;;;;;;5053737;28;20055;-62
2021/11/03 04:15:50;;;;;;;9.90;6.40;;;;;;;;;;5073748;28;20108;-62
2021/11/03 04:18:19;;;;;;;11.67;6.20;;;;;;;;;;5075254;28;20066;-62
2021/11/03 04:20:46;;;;;;;8.07;4.97;;;;;;;;;;5073178;28;20463;-62
2021/11/03 04:23:13;;;;;;;8.40;4.97;;;;;;;;;;5051455;28;20056;-62
2021/11/03 04:25:41;;;;;;;9.67;4.90;;;;;;;;;;5070255;28;20059;-62
2021/11/03 04:28:09;;;;;;;6.10;4.13;;;;;;;;;;5052678;28;20089;-62
2021/11/03 04:30:36;;;;;;;12.93;5.03;;;;;;;;;;5070140;28;20021;-62
2021/11/03 04:33:03;;;;;;;9.77;5.30;;;;;;;;;;5074786;28;20047;-62
2021/11/03 04:35:33;;;;;;;8.87;5.37;;;;;;;;;;5074138;28;20072;-62
2021/11/03 04:38:02;;;;;;;8.87;4.90;;;;;;;;;;5074706;28;20048;-62
2021/11/03 04:40:29;;;;;;;8.73;5.03;;;;;;;;;;5057268;28;20034;-62
2021/11/03 04:42:56;;;;;;;6.33;3.90;;;;;;;;;;5073108;28;20035;-62
2021/11/03 04:45:24;;;;;;;8.70;5.17;;;;;;;;;;5069507;28;20032;-62
2021/11/03 04:47:51;;;;;;;7.27;4.93;;;;;;;;;;5069711;28;20020;-62
2021/11/03 04:50:20;;;;;;;8.37;4.30;;;;;;;;;;5069364;28;20110;-62
2021/11/03 04:52:47;;;;;;;7.10;4.30;;;;;;;;;;5069868;28;20028;-62
2021/11/03 04:55:14;;;;;;;6.07;4.43;;;;;;;;;;5074802;28;20025;-62
2021/11/03 04:57:41;;;;;;;7.27;4.60;;;;;;;;;;5057038;28;20479;-62
2021/11/03 05:00:09;;;;;;;12.80;4.80;;;;;;;;;;5074405;28;20375;-62
2021/11/03 05:02:36;;;;;;;10.07;5.20;;;;;;;;;;5074103;28;20032;-62
2021/11/03 05:05:03;;;;;;;5.53;3.90;;;;;;;;;;5072954;28;20028;-62
2021/11/03 05:07:30;;;;;;;8.67;4.57;;;;;;;;;;5069104;28;20074;-62
2021/11/03 05:09:56;;;;;;;8.60;5.27;;;;;;;;;;5069582;28;20032;-62
2021/11/03 05:12:23;;;;;;;5.50;4.40;;;;;;;;;;5069430;28;20024;-62
2021/11/03 05:14:50;;;;;;;10.53;5.33;;;;;;;;;;5069108;28;20036;-62
2021/11/03 05:17:17;;;;;;;12.43;6.53;;;;;;;;;;5074314;28;20043;-62
2021/11/03 05:19:43;;;;;;;6.93;4.53;;;;;;;;;;5074324;28;20024;-62
2021/11/03 05:22:11;;;;;;;7.00;4.53;;;;;;;;;;5073999;28;20031;-62
2021/11/03 05:24:37;;;;;;;8.80;5.73;;;;;;;;;;5074099;28;20074;-62
2021/11/03 05:27:04;;;;;;;8.63;4.70;;;;;;;;;;5072986;28;20125;-62
2021/11/03 05:29:31;;;;;;;5.60;3.80;;;;;;;;;;5069177;28;20021;-62
2021/11/03 05:31:58;;;;;;;5.77;4.67;;;;;;;;;;5069088;28;20025;-63
2021/11/03 05:34:25;;;;;;;8.77;5.00;;;;;;;;;;5069074;28;20077;-61
2021/11/03 05:36:52;;;;;;;6.67;4.30;;;;;;;;;;5068253;28;20020;-62
2021/11/03 05:39:19;;;;;;;5.80;3.60;;;;;;;;;;5073590;28;20149;-62
2021/11/03 05:41:45;;;;;;;5.60;3.30;;;;;;;;;;5073889;28;20024;-62
2021/11/03 05:44:13;;;;;;;5.30;3.30;;;;;;;;;;5073708;28;20028;-63
2021/11/03 05:46:45;;;;;;;6.97;3.90;;;;;;;;;;5073836;28;20029;-63
2021/11/03 05:49:13;;;;;;;6.87;3.47;;;;;;;;;;5073283;28;20021;-62
2021/11/03 05:51:41;;;;;;;7.50;4.27;;;;;;;;;;5067993;28;20032;-62
2021/11/03 05:54:08;;;;;;;8.07;4.27;;;;;;;;;;5068004;28;20471;-62
2021/11/03 05:56:35;;;;;;;6.60;3.60;;;;;;;;;;5068339;28;20064;-62
2021/11/03 05:59:03;;;;;;;5.57;3.07;;;;;;;;;;5067887;28;20020;-62
2021/11/03 06:01:30;;;;;;;5.10;3.50;;;;;;;;;;5073265;28;20025;-62
2021/11/03 06:03:57;;;;;;;6.17;3.50;;;;;;;;;;5073076;28;20496;-62
2021/11/03 06:06:24;;;;;;;6.00;3.70;;;;;;;;;;5073393;28;20029;-62
2021/11/03 06:08:51;;;;;;;6.67;3.67;;;;;;;;;;5072925;28;20052;-62
2021/11/03 06:11:19;;;;;;;7.00;2.97;;;;;;;;;;5072778;28;20032;-61
2021/11/03 06:13:46;;;;;;;4.73;3.00;;;;;;;;;;5067941;28;20045;-62
2021/11/03 06:16:13;;;;;;;4.23;2.87;;;;;;;;;;5067715;28;20020;-62
2021/11/03 06:18:40;;;;;;;5.03;3.27;;;;;;;;;;5068071;28;20036;-62
2021/11/03 06:21:07;;;;;;;3.83;2.67;;;;;;;;;;5067348;28;20719;-63
2021/11/03 06:23:34;;;;;;;4.10;2.57;;;;;;;;;;5072138;28;20103;-62
2021/11/03 06:26:01;;;;;;;5.40;3.07;;;;;;;;;;5072380;28;20032;-62
2021/11/03 06:28:28;;;;;;;3.73;2.50;;;;;;;;;;5073099;28;20431;-62
2021/11/03 06:30:54;;;;;;;7.60;3.07;;;;;;;;;;5072742;28;20017;-63
2021/11/03 06:33:22;;;;;;;5.70;2.50;;;;;;;;;;5072968;28;20052;-62
2021/11/03 06:35:49;;;;;;;3.83;2.37;;;;;;;;;;5066517;28;20032;-62
2021/11/03 06:38:17;;;;;;;4.60;3.00;;;;;;;;;;5066301;28;20044;-62
2021/11/03 06:40:44;;;;;;;7.50;3.10;;;;;;;;;;5067561;28;20024;-62
2021/11/03 06:43:11;;;;;;;5.17;3.50;;;;;;;;;;5067735;28;20020;-62
2021/11/03 06:45:38;;;;;;;5.27;3.53;;;;;;;;;;5072186;28;20021;-62
2021/11/03 06:48:05;;;;;;;3.53;2.10;;;;;;;;;;5072054;28;20766;-62
2021/11/03 06:50:34;;;;;;;3.43;2.13;;;;;;;;;;5071984;28;20028;-62
2021/11/03 06:53:02;;;;;;;3.20;2.07;;;;;;;;;;5061825;28;20526;-62
2021/11/03 06:55:29;;;;;;;6.30;2.30;;;;;;;;;;5072369;28;20608;-62
2021/11/03 06:57:56;;;;;;;3.40;2.13;;;;;;;;;;5067113;28;20043;-62
2021/11/03 07:00:26;;;;;;;4.10;2.63;;;;;;;;;;5066720;28;20111;-62
2021/11/03 07:02:52;;;;;;;5.50;2.77;;;;;;;;;;5067316;28;20107;-62
2021/11/03 07:05:19;;;;;;;3.70;2.30;;;;;;;;;;5067085;28;20311;-62
2021/11/03 07:07:46;;;;;;;3.40;2.13;;;;;;;;;;5071252;28;20751;-62
2021/11/03 07:10:18;;;;;;;6.40;3.17;;;;;;;;;;5072217;28;20600;-62
2021/11/03 07:12:45;;;;;;;4.33;2.67;;;;;;;;;;5052552;28;20611;-62
2021/11/03 07:15:12;;;;;;;4.90;2.87;;;;;;;;;;5067341;28;20032;-62
2021/11/03 07:17:38;;;;;;;4.13;2.57;;;;;;;;;;5072159;28;20293;-62
2021/11/03 07:20:06;;;;;;;10.43;2.17;;;;;;;;;;5067183;28;20271;-62
2021/11/03 07:22:32;;;;;;;4.43;2.20;;;;;;;;;;5066247;28;20301;-62
2021/11/03 07:24:59;;;;;;;3.90;2.13;;;;;;;;;;5066835;28;20059;-61
2021/11/03 07:27:26;;;;;;;3.20;2.20;;;;;;;;;;5067314;28;20257;-61
2021/11/03 07:29:53;;;;;;;3.93;2.13;;;;;;;;;;5071329;28;20314;-62
2021/11/03 07:32:20;;;;;;;4.67;2.20;;;;;;;;;;5071929;28;20265;-62
2021/11/03 07:34:47;;;;;;;3.70;2.30;;;;;;;;;;5071905;28;20272;-62
2021/11/03 07:37:13;;;;;;;3.33;1.83;;;;;;;;;;5071888;28;20285;-61
2021/11/03 07:39:40;;;;;;;4.07;2.30;;;;;;;;;;5071241;28;20840;-62
2021/11/03 07:42:07;;;;;;;5.80;2.20;;;;;;;;;;5067155;28;20268;-62
2021/11/03 07:44:34;;;;;;;3.93;2.30;;;;;;;;;;5066537;28;20269;-61
2021/11/03 07:47:01;;;;;;;3.47;2.30;;;;;;;;;;5066716;28;20352;-62
2021/11/03 07:49:28;;;;;;;3.37;2.37;;;;;;;;;;5069415;28;20523;-62
2021/11/03 07:51:55;;;;;;;3.60;2.20;;;;;;;;;;5074295;28;20732;-64
2021/11/03 07:54:22;;;;;;;5.73;2.17;;;;;;;;;;5075435;28;20315;-61
2021/11/03 07:56:48;;;;;;;6.03;2.10;;;;;;;;;;5075402;28;20352;-62
2021/11/03 07:59:16;;;;;;;3.80;2.40;;;;;;;;;;5075856;28;20926;-62
2021/11/03 08:01:44;;;;;;;4.17;2.90;;;;;;;;;;5075772;28;20261;-61
2021/11/03 08:04:10;;;;;;;3.77;2.37;;;;;;;;;;5071118;28;20258;-62
2021/11/03 08:06:39;;;;;;;4.20;2.80;;;;;;;;;;5070426;28;20269;-61
2021/11/03 08:09:07;;;;;;;4.67;2.67;;;;;;;;;;5070214;28;20332;-62
2021/11/03 08:11:50;;;;;;;3.63;2.27;;;;;;;;;;5070456;28;20249;-62
2021/11/03 08:14:19;;;;;;;3.83;2.40;;;;;;;;;;5074207;28;20317;-62
2021/11/03 08:16:55;;;;;;;4.03;2.47;;;;;;;;;;5074870;28;20662;-61
2021/11/03 08:19:24;;;;;;;3.13;1.90;;;;;;;;;;5074769;28;20330;-61
2021/11/03 08:21:51;;;;;;;5.13;3.20;;;;;;;;;;5075516;28;20278;-61
2021/11/03 08:24:18;;;;;;;3.47;2.43;;;;;;;;;;5074518;28;20269;-61
2021/11/03 08:26:44;;;;;;;3.33;2.03;;;;;;;;;;5069967;28;20265;-62
2021/11/03 08:29:11;;;;;;;3.13;2.07;;;;;;;;;;5070215;28;20815;-61
2021/11/03 08:31:38;;;;;;;3.43;2.07;;;;;;;;;;5069993;28;20905;-61
2021/11/03 08:34:05;;;;;;;3.70;2.23;;;;;;;;;;5069849;28;20256;-61
2021/11/03 08:36:34;;;;;;;3.33;2.20;;;;;;;;;;5074124;28;20268;-61
2021/11/03 08:39:01;;;;;;;3.67;2.00;;;;;;;;;;5074766;28;20832;-61
2021/11/03 08:41:28;;;;;;;3.10;1.93;;;;;;;;;;5074970;28;20268;-61
2021/11/03 08:43:55;;;;;;;3.40;2.20;;;;;;;;;;5075151;28;20281;-62
2021/11/03 08:46:22;;;;;;;3.23;2.13;;;;;;;;;;5074775;28;20261;-61
2021/11/03 08:48:50;;;;;;;6.20;2.97;;;;;;;;;;5069612;28;20258;-61
2021/11/03 08:51:17;;;;;;;6.40;3.10;;;;;;;;;;5069655;28;20266;-61
2021/11/03 08:53:43;;;;;;;8.03;3.47;;;;;;;;;;5069316;28;20280;-62
2021/11/03 08:56:10;;;;;;;7.83;3.70;;;;;;;;;;5069214;28;20695;-62
2021/11/03 08:58:37;;;;;;;6.27;2.40;;;;;;;;;;5073531;28;20281;-61
2021/11/03 09:01:04;;;;;;;3.83;2.53;;;;;;;;;;5073842;28;20265;-63
2021/11/03 09:03:31;;;;;;;4.17;2.60;;;;;;;;;;5074605;28;20340;-61
2021/11/03 09:06:01;;;;;;;8.53;2.97;;;;;;;;;;5073819;28;20731;-62
2021/11/03 09:08:28;;;;;;;5.10;3.00;;;;;;;;;;5074267;28;20264;-61
2021/11/03 09:10:56;;;;;;;7.70;3.00;;;;;;;;;;5069819;28;20272;-61
2021/11/03 09:13:24;;;;;;;5.97;2.90;;;;;;;;;;5069496;28;20288;-62
2021/11/03 09:15:52;;;;;;;4.60;2.80;;;;;;;;;;5069092;28;20664;-62
2021/11/03 09:18:19;;;;;;;4.07;2.70;;;;;;;;;;5068861;28;21032;-61
2021/11/03 09:20:47;;;;;;;4.30;2.40;;;;;;;;;;5072793;28;20803;-62
2021/11/03 09:23:14;;;;;;;4.40;2.90;;;;;;;;;;5069263;28;20269;-61
2021/11/03 09:25:41;;;;;;;5.10;2.97;;;;;;;;;;5073981;28;20281;-61
2021/11/03 09:28:08;;;;;;;5.50;3.37;;;;;;;;;;5074149;28;20249;-61
2021/11/03 09:30:36;;;;;;;7.43;2.93;;;;;;;;;;5074120;28;20257;-61
2021/11/03 09:33:04;;;;;;;5.97;3.40;;;;;;;;;;5068613;28;20261;-62
2021/11/03 09:35:33;;;;;;;10.43;3.50;;;;;;;;;;5049075;28;20278;-62
2021/11/03 09:38:00;;;;;;;5.23;2.87;;;;;;;;;;5064413;28;20289;-61
2021/11/03 09:40:31;;;;;;;8.90;3.37;;;;;;;;;;5068875;28;20341;-61
2021/11/03 09:42:59;;;;;;;4.73;2.53;;;;;;;;;;5072844;28;20366;-61
2021/11/03 09:45:28;;;;;;;6.53;3.27;;;;;;;;;;5073714;28;20666;-62
2021/11/03 09:47:58;;;;;;;4.93;2.77;;;;;;;;;;5073163;28;20266;-61
2021/11/03 09:50:25;;;;;;;6.23;2.67;;;;;;;;;;5073459;28;20281;-61
2021/11/03 09:52:55;;;;;;;5.60;2.43;;;;;;;;;;5072931;28;20268;-61
2021/11/03 09:55:24;;;;;;;4.13;2.30;;;;;;;;;;5068059;28;20280;-61
2021/11/03 09:57:55;;;;;;;5.50;2.93;;;;;;;;;;5068501;28;20313;-61
2021/11/03 10:00:25;;;;;;;5.20;2.80;;;;;;;;;;5067978;28;20257;-61
2021/11/03 10:03:25;;;;;;;5.13;3.00;;;;;;;;;;5067669;28;20664;-62
2021/11/03 10:05:57;;;;;;;5.03;2.60;;;;;;;;;;5018985;28;20273;-61
2021/11/03 10:08:25;;;;;;;6.47;3.00;;;;;;;;;;5073337;28;20349;-62
2021/11/03 10:10:52;;;;;;;7.50;2.63;;;;;;;;;;5073371;28;20821;-61
2021/11/03 10:13:33;;;;;;;4.83;2.67;;;;;;;;;;5072837;28;20698;-61
2021/11/03 10:16:02;;;;;;;4.80;2.33;;;;;;;;;;5070936;28;20269;-61
2021/11/03 10:18:34;;;;;;;5.00;2.53;;;;;;;;;;5067665;28;20299;-61
2021/11/03 10:21:19;;;;;;;4.50;2.63;;;;;;;;;;5067967;28;20263;-62
2021/11/03 10:23:54;;;;;;;4.13;2.67;;;;;;;;;;5066377;28;20735;-61
2021/11/03 10:26:21;;;;;;;5.40;2.67;;;;;;;;;;5069887;28;20269;-61
2021/11/03 10:29:05;;;;;;;4.23;2.47;;;;;;;;;;5072111;28;20619;-62
2021/11/03 10:31:40;;;;;;;4.33;2.70;;;;;;;;;;5072855;28;20254;-61
2021/11/03 10:34:26;;;;;;;3.28;2.30;;;;;;;;;;5072921;28;20257;-61
2021/11/03 10:37:05;;;;;;;3.80;2.70;;;;;;;;;;5055933;28;20072;-61
2021/11/03 10:39:51;;;;;;;3.80;2.60;;;;;;;;;;5067822;28;20269;-61
2021/11/03 10:42:18;;;;;;;;;;;;;;;;;;5067601;28;20288;-61
2021/11/03 10:44:45;;;;;;;4.07;2.30;;;;;;;;;;5067725;28;19911;-61
2021/11/03 10:47:24;;;;;;;5.50;2.47;;;;;;;;;;5067273;28;20270;-61
2021/11/03 10:49:57;;;;;;;5.57;3.13;;;;;;;;;;5072252;28;20357;-62
2021/11/03 10:52:37;;;;;;;4.50;2.90;;;;;;;;;;5071923;28;20265;-61
2021/11/03 10:55:16;;;;;;;4.00;2.80;;;;;;;;;;5071872;28;20277;-61
2021/11/03 10:57:45;;;;;;;4.83;2.80;;;;;;;;;;5072243;28;20289;-61
2021/11/03 11:00:18;;;;;;;5.33;3.23;;;;;;;;;;5070618;28;20281;-61
2021/11/03 11:03:11;;;;;;;4.87;3.40;;;;;;;;;;5067411;28;20261;-61
2021/11/03 11:05:41;;;;;;;3.87;2.50;;;;;;;;;;5063980;28;20346;-61
2021/11/03 11:08:16;;;;;;;6.23;3.57;;;;;;;;;;5066634;28;20305;-61
2021/11/03 11:10:46;;;;;;;3.83;3.00;;;;;;;;;;5069703;28;20273;-61
2021/11/03 11:13:27;;;;;;;3.60;2.30;;;;;;;;;;5072448;28;20118;-61
2021/11/03 11:16:02;;;;;;;3.80;2.60;;;;;;;;;;5072196;28;20266;-61
2021/11/03 11:18:39;;;;;;;4.73;2.57;;;;;;;;;;5071704;28;20297;-61
2021/11/03 11:21:26;;;;;;;4.50;2.60;;;;;;;;;;5071637;28;20304;-61
2021/11/03 11:23:57;;;;;;;4.07;2.60;;;;;;;;;;5056773;28;20301;-61
2021/11/03 11:26:27;;;;;;;3.50;2.60;;;;;;;;;;5073433;28;20269;-61
2021/11/03 11:29:07;;;;;;;4.20;2.87;;;;;;;;;;5073786;28;20336;-61
2021/11/03 11:31:53;;;;;;;6.67;2.80;;;;;;;;;;5054788;28;20288;-61
2021/11/03 11:34:23;;;;;;;5.50;3.43;;;;;;;;;;5058344;28;20258;-61
2021/11/03 11:36:55;;;;;;;7.13;2.97;;;;;;;;;;5068058;28;20269;-61
2021/11/03 11:39:29;;;;;;;4.07;2.60;;;;;;;;;;5078987;28;20277;-61
2021/11/03 11:42:01;;;;;;;4.60;2.83;;;;;;;;;;5078364;28;20344;-61
2021/11/03 11:44:32;;;;;;;5.70;2.30;;;;;;;;;;5077097;28;20313;-61
2021/11/03 11:47:01;;;;;;;4.23;2.63;;;;;;;;;;5073560;28;20750;-61
2021/11/03 11:49:32;;;;;;;4.87;2.60;;;;;;;;;;5073937;28;20670;-61
2021/11/03 11:52:03;;;;;;;8.67;2.93;;;;;;;;;;5073213;28;20279;-61
2021/11/03 11:54:30;;;;;;;6.57;2.87;;;;;;;;;;5074941;28;20273;-61
2021/11/03 11:57:12;;;;;;;4.50;2.60;;;;;;;;;;5078263;28;20356;-61
2021/11/03 11:59:57;;;;;;;4.80;2.87;;;;;;;;;;5078737;28;20269;-61
2021/11/03 12:02:25;;;;;;;3.75;2.33;;;;;;;;;;5078204;28;20272;-61
2021/11/03 12:05:11;;;;;;;4.17;2.57;;;;;;;;;;5078555;28;20020;-61
2021/11/03 12:07:40;;;;;;;4.83;3.00;;;;;;;;;;5074623;28;20272;-61
2021/11/03 12:10:13;;;;;;;4.93;2.80;;;;;;;;;;5073482;28;20263;-61
2021/11/03 12:12:59;;;;;;;5.33;2.13;;;;;;;;;;5072887;28;20321;-61
2021/11/03 12:15:44;;;;;;;4.27;2.77;;;;;;;;;;5073079;28;20280;-61
2021/11/03 12:18:29;;;;;;;3.65;2.58;;;;;;;;;;5078126;28;20297;-61
2021/11/03 12:20:59;;;;;;;5.38;2.42;;;;;;;;;;5062162;28;20048;-61
2021/11/03 12:23:41;;;;;;;7.13;3.30;;;;;;;;;;5077977;28;20020;-60
2021/11/03 12:26:32;;;;;;;3.53;2.37;;;;;;;;;;5078131;28;20327;-60
2021/11/03 12:29:17;;;;;;;7.93;3.90;;;;;;;;;;5075710;28;21068;-60
2021/11/03 12:31:44;;;;;;;3.70;2.60;;;;;;;;;;5073051;28;20261;-61
2021/11/03 12:34:11;;;;;;;4.57;2.73;;;;;;;;;;5072973;28;20036;-60
2021/11/03 12:36:50;;;;;;;8.57;3.23;;;;;;;;;;5068767;28;20261;-60
2021/11/03 12:39:29;;;;;;;7.90;2.80;;;;;;;;;;5072263;28;20790;-60
2021/11/03 12:41:58;;;;;;;5.20;2.60;;;;;;;;;;5074989;28;20812;-60
2021/11/03 12:44:34;;;;;;;5.27;2.90;;;;;;;;;;5074929;28;20265;-60
2021/11/03 12:47:01;;;;;;;5.40;3.43;;;;;;;;;;5074724;28;20272;-60
2021/11/03 12:49:29;;;;;;;10.47;2.97;;;;;;;;;;5074741;28;20281;-60
2021/11/03 12:51:59;;;;;;;6.23;2.60;;;;;;;;;;5070524;28;20261;-60
2021/11/03 12:54:32;;;;;;;4.43;2.83;;;;;;;;;;5069307;28;20344;-60
2021/11/03 12:57:00;;;;;;;4.23;2.80;;;;;;;;;;5069444;28;20719;-60
2021/11/03 12:59:32;;;;;;;4.93;3.10;;;;;;;;;;5069386;28;20301;-60
2021/11/03 13:02:19;;;;;;;12.50;3.13;;;;;;;;;;5072830;28;20730;-61
2021/11/03 13:04:52;;;;;;;6.13;3.00;;;;;;;;;;5074311;28;20699;-60
2021/11/03 13:07:23;;;;;;;5.63;3.03;;;;;;;;;;5074003;28;20246;-60
2021/11/03 13:10:10;;;;;;;7.03;3.20;;;;;;;;;;5074534;28;20671;-60
2021/11/03 13:12:39;;;;;;;5.43;3.57;;;;;;;;;;5073263;28;20315;-60
2021/11/03 13:15:12;;;;;;;7.13;3.50;;;;;;;;;;5068952;28;20265;-60
2021/11/03 13:17:46;;;;;;;12.43;3.40;;;;;;;;;;5069331;28;20289;-60
2021/11/03 13:20:39;;;;;;;8.07;3.42;;;;;;;;;;5069237;28;20257;-60
2021/11/03 13:23:06;;;;;;;5.10;3.40;;;;;;;;;;5066648;28;20099;-60
2021/11/03 13:25:37;;;;;;;5.90;3.63;;;;;;;;;;5074705;28;20717;-60
2021/11/03 13:28:04;;;;;;;6.00;2.80;;;;;;;;;;5074183;28;20250;-60
2021/11/03 13:30:37;;;;;;;9.00;3.00;;;;;;;;;;5074242;28;20245;-60
2021/11/03 13:33:04;;;;;;;8.43;3.10;;;;;;;;;;5073675;28;20330;-62
2021/11/03 13:35:35;;;;;;;5.47;3.50;;;;;;;;;;5071109;28;20257;-61
2021/11/03 13:38:03;;;;;;;4.93;3.10;;;;;;;;;;5068535;28;20783;-61
2021/11/03 13:40:36;;;;;;;5.07;3.03;;;;;;;;;;5068980;28;20257;-61
2021/11/03 13:43:02;;;;;;;16.33;4.10;;;;;;;;;;5068790;28;20258;-61
2021/11/03 13:45:35;;;;;;;4.93;2.93;;;;;;;;;;5071156;28;20608;-61
2021/11/03 13:48:08;;;;;;;4.50;2.77;;;;;;;;;;5072767;28;20289;-62
2021/11/03 13:50:35;;;;;;;9.13;3.07;;;;;;;;;;5073710;28;20265;-61
2021/11/03 13:53:16;;;;;;;5.87;2.83;;;;;;;;;;5073533;28;20257;-61
2021/11/03 13:55:43;;;;;;;6.60;3.80;;;;;;;;;;5073566;28;20090;-61
2021/11/03 13:58:25;;;;;;;8.37;4.03;;;;;;;;;;5069596;28;20119;-61
2021/11/03 14:01:06;;;;;;;12.77;7.63;;;;;;;;;;5068302;28;20032;-62
2021/11/03 14:03:52;;;;;;;8.83;4.77;;;;;;;;;;5068389;28;20023;-61
2021/11/03 14:06:26;;;;;;;7.45;4.57;;;;;;;;;;5068452;28;20020;-61
2021/11/03 14:08:53;;;;;;;7.10;4.70;;;;;;;;;;5073136;28;20021;-61
2021/11/03 14:11:21;;;;;;;17.17;5.57;;;;;;;;;;5073210;28;20378;-62
2021/11/03 14:13:48;;;;;;;9.47;5.77;;;;;;;;;;5073143;28;20117;-61
2021/11/03 14:16:21;;;;;;;7.73;5.57;;;;;;;;;;5073099;28;20598;-61
2021/11/03 14:18:48;;;;;;;9.73;5.73;;;;;;;;;;5072081;28;20040;-61
2021/11/03 14:21:15;;;;;;;15.33;5.60;;;;;;;;;;5067441;28;20017;-63
2021/11/03 14:23:42;;;;;;;11.17;5.63;;;;;;;;;;5067718;28;20032;-62
2021/11/03 14:26:11;;;;;;;11.20;6.37;;;;;;;;;;5068022;28;20039;-62
2021/11/03 14:28:39;;;;;;;10.77;5.73;;;;;;;;;;5067878;28;20103;-61
2021/11/03 14:31:26;;;;;;;10.23;5.67;;;;;;;;;;5072640;28;20359;-61
2021/11/03 14:33:56;;;;;;;9.33;5.47;;;;;;;;;;5072427;28;20464;-61
2021/11/03 14:36:23;;;;;;;7.63;4.40;;;;;;;;;;5072813;28;20043;-62
2021/11/03 14:38:51;;;;;;;8.57;4.83;;;;;;;;;;5072781;28;20086;-61
2021/11/03 14:41:20;;;;;;;11.93;5.30;;;;;;;;;;5071167;28;20012;-62
2021/11/03 14:43:47;;;;;;;8.00;5.30;;;;;;;;;;5067541;28;20087;-62
2021/11/03 14:46:33;;;;;;;10.57;5.33;;;;;;;;;;5067390;28;20086;-62
2021/11/03 14:49:02;;;;;;;8.30;4.53;;;;;;;;;;5067574;28;20029;-62
2021/11/03 14:51:31;;;;;;;6.77;5.13;;;;;;;;;;5068735;28;20114;-62
2021/11/03 14:53:57;;;;;;;11.90;6.60;;;;;;;;;;5072754;28;20537;-62
2021/11/03 14:56:24;;;;;;;12.93;5.30;;;;;;;;;;5072588;28;20017;-62